sensor_id;sensor_type;location;lat;lon;timestamp;pressure;altitude;pressure_sealevel;temperature;humidity
8160;BME280;27404;52.398;9.646;2023-04-05T00:01:21;101791.78;;;-1.95;100.00
8160;BME280;27404;52.398;9.646;2023-04-05T00:03:50;101801.06;;;-1.99;100.00
8160;BME280;27404;52.398;9.646;2023-04-05T00:06:16;101797.91;;;-2.04;100.00
8160;BME280;27404;52.398;9.646;2023-04-05T00:08:43;101797.66;;;-2.13;100.00
8160;BME280;27404;52.398;9.646;2023-04-05T00:11:14;101793.66;;;-2.07;100.00
8160;BME280;27404;52.398;9.646;2023-04-05T00:13:41;101792.06;;;-2.10;100.00
8160;BME280;27404;52.398;9.646;2023-04-05T00:16:06;101789.50;;;-2.11;100.00
8160;BME280;27404;52.398;9.646;2023-04-05T00:18:32;101782.94;;;-2.07;100.00
8160;BME280;27404;52.398;9.646;2023-04-05T00:20:58;101781.34;;;-2.10;100.00
8160;BME280;27404;52.398;9.646;2023-04-05T00:23:23;101785.63;;;-2.07;100.00
8160;BME280;27404;52.398;9.646;2023-04-05T00:25:50;101796.94;;;-2.15;100.00
8160;BME280;27404;52.398;9.646;2023-04-05T00:28:16;101788.53;;;-2.21;100.00
8160;BME280;27404;52.398;9.646;2023-04-05T00:30:42;101787.56;;;-2.20;100.00
8160;BME280;27404;52.398;9.646;2023-04-05T00:33:07;101784.50;;;-2.16;100.00
8160;BME280;27404;52.398;9.646;2023-04-05T00:35:33;101793.53;;;-2.17;100.00
8160;BME280;27404;52.398;9.646;2023-04-05T00:37:58;101794.88;;;-2.22;100.00
8160;BME280;27404;52.398;9.646;2023-04-05T00:40:24;101797.06;;;-2.28;100.00
8160;BME280;27404;52.398;9.646;2023-04-05T00:42:49;101792.53;;;-2.27;100.00
8160;BME280;27404;52.398;9.646;2023-04-05T00:45:15;101792.34;;;-2.35;100.00
8160;BME280;27404;52.398;9.646;2023-04-05T00:47:41;101790.38;;;-2.45;100.00
8160;BME280;27404;52.398;9.646;2023-04-05T00:50:08;101791.09;;;-2.31;100.00
8160;BME280;27404;52.398;9.646;2023-04-05T00:52:35;101802.91;;;-2.34;100.00
8160;BME280;27404;52.398;9.646;2023-04-05T00:55:05;101787.81;;;-2.35;100.00
8160;BME280;27404;52.398;9.646;2023-04-05T00:57:32;101786.97;;;-2.35;100.00
8160;BME280;27404;52.398;9.646;2023-04-05T00:59:59;101781.63;;;-2.35;100.00
8160;BME280;27404;52.398;9.646;2023-04-05T01:02:29;101784.78;;;-2.42;100.00
8160;BME280;27404;52.398;9.646;2023-04-05T01:05:03;101777.81;;;-2.56;100.00
8160;BME280;27404;52.398;9.646;2023-04-05T01:10:09;101774.41;;;-2.58;100.00
8160;BME280;27404;52.398;9.646;2023-04-05T01:12:37;101781.38;;;-2.55;100.00
8160;BME280;27404;52.398;9.646;2023-04-05T01:15:04;101778.78;;;-2.57;100.00
8160;BME280;27404;52.398;9.646;2023-04-05T01:17:30;101777.47;;;-2.62;100.00
8160;BME280;27404;52.398;9.646;2023-04-05T01:20:04;101776.13;;;-2.68;100.00
8160;BME280;27404;52.398;9.646;2023-04-05T01:30:40;101769.41;;;-2.74;100.00
8160;BME280;27404;52.398;9.646;2023-04-05T01:33:30;101765.41;;;-2.79;100.00
8160;BME280;27404;52.398;9.646;2023-04-05T01:36:03;101766.75;;;-2.74;100.00
8160;BME280;27404;52.398;9.646;2023-04-05T01:38:32;101759.69;;;-2.63;100.00
8160;BME280;27404;52.398;9.646;2023-04-05T01:40:59;101760.31;;;-2.71;100.00
8160;BME280;27404;52.398;9.646;2023-04-05T01:43:25;101763.00;;;-2.71;100.00
8160;BME280;27404;52.398;9.646;2023-04-05T01:45:50;101759.81;;;-2.76;100.00
8160;BME280;27404;52.398;9.646;2023-04-05T01:48:16;101763.56;;;-2.79;100.00
8160;BME280;27404;52.398;9.646;2023-04-05T01:50:41;101764.31;;;-2.77;100.00
8160;BME280;27404;52.398;9.646;2023-04-05T01:53:07;101759.09;;;-2.67;100.00
8160;BME280;27404;52.398;9.646;2023-04-05T01:55:32;101760.06;;;-2.79;100.00
8160;BME280;27404;52.398;9.646;2023-04-05T01:57:58;101755.66;;;-2.92;100.00
8160;BME280;27404;52.398;9.646;2023-04-05T02:00:23;101760.53;;;-2.97;100.00
8160;BME280;27404;52.398;9.646;2023-04-05T02:02:49;101758.81;;;-2.98;100.00
8160;BME280;27404;52.398;9.646;2023-04-05T02:05:15;101769.66;;;-3.00;100.00
8160;BME280;27404;52.398;9.646;2023-04-05T02:07:41;101764.44;;;-2.90;100.00
8160;BME280;27404;52.398;9.646;2023-04-05T02:10:07;101755.44;;;-2.89;100.00
8160;BME280;27404;52.398;9.646;2023-04-05T02:12:33;101749.69;;;-2.95;100.00
8160;BME280;27404;52.398;9.646;2023-04-05T02:14:58;101756.88;;;-2.96;100.00
8160;BME280;27404;52.398;9.646;2023-04-05T02:17:24;101761.25;;;-2.95;100.00
8160;BME280;27404;52.398;9.646;2023-04-05T02:19:50;101762.31;;;-3.09;100.00
8160;BME280;27404;52.398;9.646;2023-04-05T02:22:18;101758.94;;;-2.88;100.00
8160;BME280;27404;52.398;9.646;2023-04-05T02:24:43;101758.72;;;-2.74;100.00
8160;BME280;27404;52.398;9.646;2023-04-05T02:27:09;101758.84;;;-2.64;100.00
8160;BME280;27404;52.398;9.646;2023-04-05T02:29:35;101758.34;;;-2.80;100.00
8160;BME280;27404;52.398;9.646;2023-04-05T02:32:00;101763.94;;;-2.95;100.00
8160;BME280;27404;52.398;9.646;2023-04-05T02:34:26;101761.34;;;-3.08;100.00
8160;BME280;27404;52.398;9.646;2023-04-05T02:36:52;101760.63;;;-3.10;100.00
8160;BME280;27404;52.398;9.646;2023-04-05T02:39:18;101753.06;;;-3.16;100.00
8160;BME280;27404;52.398;9.646;2023-04-05T02:41:44;101752.88;;;-3.02;100.00
8160;BME280;27404;52.398;9.646;2023-04-05T02:44:10;101753.31;;;-2.97;100.00
8160;BME280;27404;52.398;9.646;2023-04-05T02:46:35;101749.44;;;-3.04;100.00
8160;BME280;27404;52.398;9.646;2023-04-05T02:49:01;101746.78;;;-3.04;100.00
8160;BME280;27404;52.398;9.646;2023-04-05T02:51:26;101743.22;;;-3.04;100.00
8160;BME280;27404;52.398;9.646;2023-04-05T02:53:52;101748.31;;;-3.13;100.00
8160;BME280;27404;52.398;9.646;2023-04-05T02:56:17;101739.56;;;-3.15;100.00
8160;BME280;27404;52.398;9.646;2023-04-05T02:58:43;101736.75;;;-3.24;100.00
8160;BME280;27404;52.398;9.646;2023-04-05T03:01:09;101734.53;;;-3.31;100.00
8160;BME280;27404;52.398;9.646;2023-04-05T03:03:35;101735.78;;;-3.23;100.00
8160;BME280;27404;52.398;9.646;2023-04-05T03:06:05;101728.38;;;-3.31;100.00
8160;BME280;27404;52.398;9.646;2023-04-05T03:08:41;101727.97;;;-3.38;100.00
8160;BME280;27404;52.398;9.646;2023-04-05T03:11:13;101721.28;;;-3.44;100.00
8160;BME280;27404;52.398;9.646;2023-04-05T03:13:38;101714.31;;;-3.46;100.00
8160;BME280;27404;52.398;9.646;2023-04-05T03:16:04;101708.69;;;-3.54;100.00
8160;BME280;27404;52.398;9.646;2023-04-05T03:18:30;101716.25;;;-3.48;100.00
8160;BME280;27404;52.398;9.646;2023-04-05T03:20:56;101720.63;;;-3.47;100.00
8160;BME280;27404;52.398;9.646;2023-04-05T03:23:29;101711.28;;;-3.53;100.00
8160;BME280;27404;52.398;9.646;2023-04-05T03:26:02;101710.88;;;-3.60;100.00
8160;BME280;27404;52.398;9.646;2023-04-05T03:28:31;101715.38;;;-3.60;100.00
8160;BME280;27404;52.398;9.646;2023-04-05T03:30:57;101717.59;;;-3.54;100.00
8160;BME280;27404;52.398;9.646;2023-04-05T03:33:23;101710.91;;;-3.48;100.00
8160;BME280;27404;52.398;9.646;2023-04-05T03:35:48;101702.06;;;-3.49;100.00
8160;BME280;27404;52.398;9.646;2023-04-05T03:38:14;101704.78;;;-3.62;100.00
8160;BME280;27404;52.398;9.646;2023-04-05T03:40:40;101706.00;;;-3.66;100.00
8160;BME280;27404;52.398;9.646;2023-04-05T03:43:06;101707.59;;;-3.63;100.00
8160;BME280;27404;52.398;9.646;2023-04-05T03:45:31;101723.91;;;-3.55;100.00
8160;BME280;27404;52.398;9.646;2023-04-05T03:47:57;101722.69;;;-3.51;100.00
8160;BME280;27404;52.398;9.646;2023-04-05T03:50:24;101723.06;;;-3.44;100.00
8160;BME280;27404;52.398;9.646;2023-04-05T03:52:51;101720.16;;;-3.41;100.00
8160;BME280;27404;52.398;9.646;2023-04-05T03:55:16;101720.16;;;-3.41;100.00
8160;BME280;27404;52.398;9.646;2023-04-05T03:57:42;101713.75;;;-3.38;100.00
8160;BME280;27404;52.398;9.646;2023-04-05T04:00:08;101718.72;;;-3.34;100.00
8160;BME280;27404;52.398;9.646;2023-04-05T04:02:44;101716.91;;;-3.45;100.00
8160;BME280;27404;52.398;9.646;2023-04-05T04:05:11;101717.88;;;-3.46;100.00
8160;BME280;27404;52.398;9.646;2023-04-05T04:07:37;101716.53;;;-3.40;100.00
8160;BME280;27404;52.398;9.646;2023-04-05T04:10:05;101710.06;;;-3.49;100.00
8160;BME280;27404;52.398;9.646;2023-04-05T04:12:31;101721.47;;;-3.58;100.00
8160;BME280;27404;52.398;9.646;2023-04-05T04:14:57;101718.44;;;-3.53;100.00
8160;BME280;27404;52.398;9.646;2023-04-05T04:17:30;101712.69;;;-3.60;100.00
8160;BME280;27404;52.398;9.646;2023-04-05T04:19:56;101720.44;;;-3.68;100.00
8160;BME280;27404;52.398;9.646;2023-04-05T04:22:22;101717.09;;;-3.59;100.00
8160;BME280;27404;52.398;9.646;2023-04-05T04:24:53;101717.97;;;-3.47;100.00
8160;BME280;27404;52.398;9.646;2023-04-05T04:27:19;101718.09;;;-3.49;100.00
8160;BME280;27404;52.398;9.646;2023-04-05T04:29:48;101719.13;;;-3.63;100.00
8160;BME280;27404;52.398;9.646;2023-04-05T04:32:14;101717.69;;;-3.67;100.00
8160;BME280;27404;52.398;9.646;2023-04-05T04:34:41;101715.31;;;-3.72;100.00
8160;BME280;27404;52.398;9.646;2023-04-05T04:37:14;101725.50;;;-3.77;100.00
8160;BME280;27404;52.398;9.646;2023-04-05T04:39:45;101723.25;;;-3.70;100.00
8160;BME280;27404;52.398;9.646;2023-04-05T04:42:12;101722.38;;;-3.70;100.00
8160;BME280;27404;52.398;9.646;2023-04-05T04:44:37;101717.53;;;-3.65;100.00
8160;BME280;27404;52.398;9.646;2023-04-05T04:47:03;101716.34;;;-3.61;100.00
8160;BME280;27404;52.398;9.646;2023-04-05T04:49:37;101714.03;;;-3.54;100.00
8160;BME280;27404;52.398;9.646;2023-04-05T04:52:02;101713.06;;;-3.53;100.00
8160;BME280;27404;52.398;9.646;2023-04-05T04:54:28;101719.97;;;-3.62;100.00
8160;BME280;27404;52.398;9.646;2023-04-05T04:56:53;101720.81;;;-3.62;100.00
8160;BME280;27404;52.398;9.646;2023-04-05T04:59:18;101719.53;;;-3.56;100.00
8160;BME280;27404;52.398;9.646;2023-04-05T05:01:44;101721.84;;;-3.51;100.00
8160;BME280;27404;52.398;9.646;2023-04-05T05:04:10;101732.75;;;-3.54;100.00
8160;BME280;27404;52.398;9.646;2023-04-05T05:06:35;101726.88;;;-3.35;100.00
8160;BME280;27404;52.398;9.646;2023-04-05T05:09:02;101735.34;;;-3.06;100.00
8160;BME280;27404;52.398;9.646;2023-04-05T05:11:27;101733.66;;;-2.84;100.00
8160;BME280;27404;52.398;9.646;2023-04-05T05:13:53;101732.19;;;-2.77;100.00
8160;BME280;27404;52.398;9.646;2023-04-05T05:16:18;101727.44;;;-2.96;100.00
8160;BME280;27404;52.398;9.646;2023-04-05T05:18:46;101732.41;;;-2.91;100.00
8160;BME280;27404;52.398;9.646;2023-04-05T05:21:12;101730.38;;;-2.88;100.00
8160;BME280;27404;52.398;9.646;2023-04-05T05:23:38;101734.75;;;-2.87;100.00
8160;BME280;27404;52.398;9.646;2023-04-05T05:26:03;101731.84;;;-2.84;100.00
8160;BME280;27404;52.398;9.646;2023-04-05T05:28:29;101734.16;;;-2.68;100.00
8160;BME280;27404;52.398;9.646;2023-04-05T05:30:54;101734.16;;;-2.45;100.00
8160;BME280;27404;52.398;9.646;2023-04-05T05:33:19;101732.66;;;-2.26;100.00
8160;BME280;27404;52.398;9.646;2023-04-05T05:35:48;101730.44;;;-2.21;100.00
8160;BME280;27404;52.398;9.646;2023-04-05T05:38:17;101728.50;;;-2.19;100.00
8160;BME280;27404;52.398;9.646;2023-04-05T05:40:43;101732.25;;;-1.99;100.00
8160;BME280;27404;52.398;9.646;2023-04-05T05:43:08;101728.75;;;-1.78;100.00
8160;BME280;27404;52.398;9.646;2023-04-05T05:45:37;101724.47;;;-1.69;100.00
8160;BME280;27404;52.398;9.646;2023-04-05T05:48:02;101727.34;;;-1.61;100.00
8160;BME280;27404;52.398;9.646;2023-04-05T05:50:28;101719.13;;;-1.48;100.00
8160;BME280;27404;52.398;9.646;2023-04-05T05:52:59;101726.41;;;-1.17;100.00
8160;BME280;27404;52.398;9.646;2023-04-05T05:55:25;101717.16;;;-1.03;100.00
8160;BME280;27404;52.398;9.646;2023-04-05T05:57:50;101712.16;;;-0.87;100.00
8160;BME280;27404;52.398;9.646;2023-04-05T06:00:18;101709.00;;;-0.71;100.00
8160;BME280;27404;52.398;9.646;2023-04-05T06:02:44;101710.88;;;-0.62;100.00
8160;BME280;27404;52.398;9.646;2023-04-05T06:05:10;101708.81;;;-0.48;100.00
8160;BME280;27404;52.398;9.646;2023-04-05T06:07:36;101707.03;;;-0.18;100.00
8160;BME280;27404;52.398;9.646;2023-04-05T06:10:03;101712.31;;;1.20;100.00
8160;BME280;27404;52.398;9.646;2023-04-05T06:12:29;101706.03;;;3.28;100.00
8160;BME280;27404;52.398;9.646;2023-04-05T06:14:54;101711.63;;;5.43;100.00
8160;BME280;27404;52.398;9.646;2023-04-05T06:17:20;101704.72;;;7.57;100.00
8160;BME280;27404;52.398;9.646;2023-04-05T06:19:45;101712.13;;;9.15;99.18
8160;BME280;27404;52.398;9.646;2023-04-05T06:22:11;101723.47;;;9.47;87.76
8160;BME280;27404;52.398;9.646;2023-04-05T06:24:36;101721.34;;;8.21;83.18
8160;BME280;27404;52.398;9.646;2023-04-05T06:27:01;101714.50;;;6.45;86.76
8160;BME280;27404;52.398;9.646;2023-04-05T06:29:27;101722.22;;;5.05;93.45
8160;BME280;27404;52.398;9.646;2023-04-05T06:31:54;101711.56;;;4.12;100.00
8160;BME280;27404;52.398;9.646;2023-04-05T06:34:19;101717.44;;;3.48;100.00
8160;BME280;27404;52.398;9.646;2023-04-05T06:36:45;101710.59;;;3.01;100.00
8160;BME280;27404;52.398;9.646;2023-04-05T06:39:10;101711.84;;;2.62;100.00
8160;BME280;27404;52.398;9.646;2023-04-05T06:41:36;101718.09;;;2.45;100.00
8160;BME280;27404;52.398;9.646;2023-04-05T06:44:01;101716.63;;;2.32;100.00
8160;BME280;27404;52.398;9.646;2023-04-05T06:46:27;101718.81;;;2.29;100.00
8160;BME280;27404;52.398;9.646;2023-04-05T06:48:52;101714.41;;;2.28;100.00
8160;BME280;27404;52.398;9.646;2023-04-05T06:51:18;101712.41;;;2.30;100.00
8160;BME280;27404;52.398;9.646;2023-04-05T06:53:44;101722.28;;;2.39;100.00
8160;BME280;27404;52.398;9.646;2023-04-05T06:56:09;101714.34;;;2.56;100.00
8160;BME280;27404;52.398;9.646;2023-04-05T06:58:35;101715.41;;;2.63;100.00
8160;BME280;27404;52.398;9.646;2023-04-05T07:01:01;101711.28;;;2.77;100.00
8160;BME280;27404;52.398;9.646;2023-04-05T07:03:26;101709.66;;;2.84;100.00
8160;BME280;27404;52.398;9.646;2023-04-05T07:05:57;101710.09;;;2.98;100.00
8160;BME280;27404;52.398;9.646;2023-04-05T07:08:25;101705.31;;;2.91;100.00
8160;BME280;27404;52.398;9.646;2023-04-05T07:10:51;101706.78;;;2.86;100.00
8160;BME280;27404;52.398;9.646;2023-04-05T07:13:18;101698.69;;;2.86;100.00
8160;BME280;27404;52.398;9.646;2023-04-05T07:15:44;101699.78;;;2.75;100.00
8160;BME280;27404;52.398;9.646;2023-04-05T07:18:10;101696.13;;;2.58;100.00
8160;BME280;27404;52.398;9.646;2023-04-05T07:20:36;101695.19;;;2.49;100.00
8160;BME280;27404;52.398;9.646;2023-04-05T07:23:02;101696.81;;;2.42;100.00
8160;BME280;27404;52.398;9.646;2023-04-05T07:25:28;101686.63;;;2.35;100.00
8160;BME280;27404;52.398;9.646;2023-04-05T07:27:53;101689.44;;;2.26;100.00
8160;BME280;27404;52.398;9.646;2023-04-05T07:30:19;101691.34;;;2.33;100.00
8160;BME280;27404;52.398;9.646;2023-04-05T07:32:44;101692.34;;;2.32;100.00
8160;BME280;27404;52.398;9.646;2023-04-05T07:35:10;101691.03;;;2.36;100.00
8160;BME280;27404;52.398;9.646;2023-04-05T07:37:35;101688.34;;;2.36;100.00
8160;BME280;27404;52.398;9.646;2023-04-05T07:40:01;101693.13;;;2.43;100.00
8160;BME280;27404;52.398;9.646;2023-04-05T07:42:27;101689.78;;;2.49;100.00
8160;BME280;27404;52.398;9.646;2023-04-05T07:44:53;101690.50;;;2.51;100.00
8160;BME280;27404;52.398;9.646;2023-04-05T07:47:18;101682.66;;;2.66;100.00
8160;BME280;27404;52.398;9.646;2023-04-05T07:49:44;101692.63;;;2.65;100.00
8160;BME280;27404;52.398;9.646;2023-04-05T07:52:09;101699.47;;;2.78;100.00
8160;BME280;27404;52.398;9.646;2023-04-05T07:54:35;101691.81;;;2.91;100.00
8160;BME280;27404;52.398;9.646;2023-04-05T07:57:04;101690.09;;;3.17;100.00
8160;BME280;27404;52.398;9.646;2023-04-05T07:59:31;101694.97;;;3.48;100.00
8160;BME280;27404;52.398;9.646;2023-04-05T08:01:57;101691.72;;;3.79;100.00
8160;BME280;27404;52.398;9.646;2023-04-05T08:04:22;101697.16;;;3.95;100.00
8160;BME280;27404;52.398;9.646;2023-04-05T08:06:50;101695.97;;;3.98;100.00
8160;BME280;27404;52.398;9.646;2023-04-05T08:09:16;101699.00;;;3.95;98.82
8160;BME280;27404;52.398;9.646;2023-04-05T08:11:42;101700.88;;;4.03;97.65
8160;BME280;27404;52.398;9.646;2023-04-05T08:14:07;101700.69;;;3.88;92.33
8160;BME280;27404;52.398;9.646;2023-04-05T08:16:33;101696.50;;;4.10;91.44
8160;BME280;27404;52.398;9.646;2023-04-05T08:18:58;101698.72;;;4.23;89.05
8160;BME280;27404;52.398;9.646;2023-04-05T08:21:24;101695.50;;;4.19;86.04
8160;BME280;27404;52.398;9.646;2023-04-05T08:23:50;101698.38;;;4.18;86.48
8160;BME280;27404;52.398;9.646;2023-04-05T08:26:16;101692.28;;;4.15;84.88
8160;BME280;27404;52.398;9.646;2023-04-05T08:28:42;101689.75;;;4.22;85.75
8160;BME280;27404;52.398;9.646;2023-04-05T08:31:07;101687.91;;;4.23;89.39
8160;BME280;27404;52.398;9.646;2023-04-05T08:33:33;101688.41;;;4.18;85.02
8160;BME280;27404;52.398;9.646;2023-04-05T08:36:08;101687.75;;;4.33;85.78
8160;BME280;27404;52.398;9.646;2023-04-05T08:38:35;101687.91;;;4.39;82.50
8160;BME280;27404;52.398;9.646;2023-04-05T08:41:18;101689.09;;;4.45;79.29
8160;BME280;27404;52.398;9.646;2023-04-05T08:43:57;101692.47;;;4.72;77.45
8160;BME280;27404;52.398;9.646;2023-04-05T08:46:24;101692.28;;;4.90;76.40
8160;BME280;27404;52.398;9.646;2023-04-05T08:48:51;101691.88;;;5.10;76.55
8160;BME280;27404;52.398;9.646;2023-04-05T08:51:19;101680.00;;;5.19;74.69
8160;BME280;27404;52.398;9.646;2023-04-05T08:53:44;101686.75;;;5.31;73.38
8160;BME280;27404;52.398;9.646;2023-04-05T08:56:10;101690.13;;;5.42;72.51
8160;BME280;27404;52.398;9.646;2023-04-05T08:58:40;101680.34;;;5.64;73.11
8160;BME280;27404;52.398;9.646;2023-04-05T09:01:11;101687.00;;;5.93;73.79
8160;BME280;27404;52.398;9.646;2023-04-05T09:03:39;101687.09;;;6.08;74.72
8160;BME280;27404;52.398;9.646;2023-04-05T09:06:07;101680.38;;;6.42;71.68
8160;BME280;27404;52.398;9.646;2023-04-05T09:08:37;101683.66;;;6.37;63.78
8160;BME280;27404;52.398;9.646;2023-04-05T09:11:03;101681.78;;;6.76;63.76
8160;BME280;27404;52.398;9.646;2023-04-05T09:13:28;101678.94;;;7.08;61.69
8160;BME280;27404;52.398;9.646;2023-04-05T09:15:55;101677.78;;;7.32;65.94
8160;BME280;27404;52.398;9.646;2023-04-05T09:18:21;101677.38;;;8.02;64.36
8160;BME280;27404;52.398;9.646;2023-04-05T09:20:46;101681.50;;;8.56;62.21
8160;BME280;27404;52.398;9.646;2023-04-05T09:23:12;101679.44;;;8.87;57.29
8160;BME280;27404;52.398;9.646;2023-04-05T09:25:38;101675.50;;;8.96;55.83
8160;BME280;27404;52.398;9.646;2023-04-05T09:28:05;101679.81;;;9.12;55.51
8160;BME280;27404;52.398;9.646;2023-04-05T09:30:31;101681.84;;;9.39;54.58
8160;BME280;27404;52.398;9.646;2023-04-05T09:32:57;101681.47;;;9.48;56.14
8160;BME280;27404;52.398;9.646;2023-04-05T09:35:25;101682.16;;;9.64;51.79
8160;BME280;27404;52.398;9.646;2023-04-05T09:37:58;101680.75;;;9.82;49.44
8160;BME280;27404;52.398;9.646;2023-04-05T09:40:48;101672.59;;;9.88;50.21
8160;BME280;27404;52.398;9.646;2023-04-05T09:43:40;101670.38;;;10.26;52.11
8160;BME280;27404;52.398;9.646;2023-04-05T09:46:14;101668.31;;;10.68;48.57
8160;BME280;27404;52.398;9.646;2023-04-05T09:48:47;101678.84;;;10.44;46.25
8160;BME280;27404;52.398;9.646;2023-04-05T09:51:17;101674.16;;;10.18;49.60
8160;BME280;27404;52.398;9.646;2023-04-05T09:54:06;101670.94;;;10.01;47.25
8160;BME280;27404;52.398;9.646;2023-04-05T09:56:37;101669.88;;;10.02;45.44
8160;BME280;27404;52.398;9.646;2023-04-05T09:59:20;101671.00;;;10.21;47.58
8160;BME280;27404;52.398;9.646;2023-04-05T10:01:50;101670.16;;;10.14;44.88
8160;BME280;27404;52.398;9.646;2023-04-05T10:04:18;101668.78;;;9.76;44.60
8160;BME280;27404;52.398;9.646;2023-04-05T10:06:44;101658.94;;;9.88;45.83
8160;BME280;27404;52.398;9.646;2023-04-05T10:09:10;101664.09;;;9.63;47.66
8160;BME280;27404;52.398;9.646;2023-04-05T10:11:37;101658.28;;;9.73;47.00
8160;BME280;27404;52.398;9.646;2023-04-05T10:14:05;101658.50;;;9.85;44.80
8160;BME280;27404;52.398;9.646;2023-04-05T10:17:19;101669.31;;;10.33;45.19
8160;BME280;27404;52.398;9.646;2023-04-05T10:20:16;101662.16;;;10.19;46.36
8160;BME280;27404;52.398;9.646;2023-04-05T10:25:49;101648.94;;;10.36;47.43
8160;BME280;27404;52.398;9.646;2023-04-05T10:30:58;101644.94;;;10.38;42.21
8160;BME280;27404;52.398;9.646;2023-04-05T10:38:28;101639.91;;;10.62;46.35
8160;BME280;27404;52.398;9.646;2023-04-05T10:41:05;101639.91;;;10.62;43.10
8160;BME280;27404;52.398;9.646;2023-04-05T10:43:34;101637.38;;;10.41;43.98
8160;BME280;27404;52.398;9.646;2023-04-05T10:46:02;101633.50;;;9.88;45.84
8160;BME280;27404;52.398;9.646;2023-04-05T10:48:53;101625.97;;;9.34;43.19
8160;BME280;27404;52.398;9.646;2023-04-05T10:51:25;101631.31;;;9.56;46.68
8160;BME280;27404;52.398;9.646;2023-04-05T10:53:52;101633.81;;;9.09;46.31
8160;BME280;27404;52.398;9.646;2023-04-05T10:56:20;101628.34;;;9.02;47.71
8160;BME280;27404;52.398;9.646;2023-04-05T10:58:46;101624.34;;;8.98;45.79
8160;BME280;27404;52.398;9.646;2023-04-05T11:01:12;101623.22;;;8.86;43.73
8160;BME280;27404;52.398;9.646;2023-04-05T11:06:30;101617.44;;;9.02;46.81
8160;BME280;27404;52.398;9.646;2023-04-05T11:09:00;101617.31;;;9.17;45.84
8160;BME280;27404;52.398;9.646;2023-04-05T11:11:40;101618.19;;;9.25;45.71
8160;BME280;27404;52.398;9.646;2023-04-05T11:14:36;101624.19;;;9.13;46.62
8160;BME280;27404;52.398;9.646;2023-04-05T11:17:03;101623.25;;;8.93;43.80
8160;BME280;27404;52.398;9.646;2023-04-05T11:19:50;101615.81;;;8.80;45.90
8160;BME280;27404;52.398;9.646;2023-04-05T11:22:28;101607.13;;;8.98;46.08
8160;BME280;27404;52.398;9.646;2023-04-05T11:24:59;101603.19;;;9.07;47.60
8160;BME280;27404;52.398;9.646;2023-04-05T11:27:29;101603.16;;;9.00;48.37
8160;BME280;27404;52.398;9.646;2023-04-05T11:29:56;101595.41;;;8.40;44.47
8160;BME280;27404;52.398;9.646;2023-04-05T11:32:23;101591.63;;;8.41;46.00
8160;BME280;27404;52.398;9.646;2023-04-05T11:35:00;101594.19;;;8.21;44.59
8160;BME280;27404;52.398;9.646;2023-04-05T11:38:21;101589.31;;;8.17;44.22
8160;BME280;27404;52.398;9.646;2023-04-05T11:40:40;101595.50;;;8.25;46.16
8160;BME280;27404;52.398;9.646;2023-04-05T11:43:09;101594.94;;;8.58;46.43
8160;BME280;27404;52.398;9.646;2023-04-05T11:45:39;101582.75;;;8.89;46.09
8160;BME280;27404;52.398;9.646;2023-04-05T11:48:11;101581.41;;;9.14;46.74
8160;BME280;27404;52.398;9.646;2023-04-05T11:50:38;101581.41;;;9.14;46.59
8160;BME280;27404;52.398;9.646;2023-04-05T11:53:14;101576.75;;;8.72;46.65
8160;BME280;27404;52.398;9.646;2023-04-05T11:55:49;101573.81;;;9.02;46.51
8160;BME280;27404;52.398;9.646;2023-04-05T11:58:23;101575.75;;;9.15;45.22
8160;BME280;27404;52.398;9.646;2023-04-05T12:01:04;101561.28;;;9.22;47.16
8160;BME280;27404;52.398;9.646;2023-04-05T12:03:30;101556.00;;;9.07;47.66
8160;BME280;27404;52.398;9.646;2023-04-05T12:05:59;101561.09;;;9.23;45.89
8160;BME280;27404;52.398;9.646;2023-04-05T12:08:55;101562.03;;;9.51;48.25
8160;BME280;27404;52.398;9.646;2023-04-05T12:11:25;101566.66;;;9.57;47.44
8160;BME280;27404;52.398;9.646;2023-04-05T12:13:59;101558.25;;;9.58;44.00
8160;BME280;27404;52.398;9.646;2023-04-05T12:16:26;101560.53;;;9.41;46.23
8160;BME280;27404;52.398;9.646;2023-04-05T12:18:59;101553.97;;;9.22;45.69
8160;BME280;27404;52.398;9.646;2023-04-05T12:21:26;101552.78;;;9.52;45.17
8160;BME280;27404;52.398;9.646;2023-04-05T12:23:52;101547.78;;;9.75;43.41
8160;BME280;27404;52.398;9.646;2023-04-05T12:26:18;101546.59;;;9.23;43.44
8160;BME280;27404;52.398;9.646;2023-04-05T12:28:54;101542.19;;;9.22;45.54
8160;BME280;27404;52.398;9.646;2023-04-05T12:34:05;101535.69;;;9.16;46.22
8160;BME280;27404;52.398;9.646;2023-04-05T12:36:31;101536.13;;;9.26;46.10
8160;BME280;27404;52.398;9.646;2023-04-05T12:38:56;101536.78;;;9.42;45.14
8160;BME280;27404;52.398;9.646;2023-04-05T12:41:29;101530.97;;;9.65;43.69
8160;BME280;27404;52.398;9.646;2023-04-05T12:43:56;101529.69;;;9.61;43.45
8160;BME280;27404;52.398;9.646;2023-04-05T12:46:46;101531.38;;;9.48;45.89
8160;BME280;27404;52.398;9.646;2023-04-05T12:49:15;101520.63;;;9.47;45.11
8160;BME280;27404;52.398;9.646;2023-04-05T12:51:44;101512.91;;;9.57;46.29
8160;BME280;27404;52.398;9.646;2023-04-05T12:54:14;101513.31;;;9.47;44.73
8160;BME280;27404;52.398;9.646;2023-04-05T12:56:40;101506.13;;;9.26;44.50
8160;BME280;27404;52.398;9.646;2023-04-05T12:59:06;101503.81;;;9.23;46.55
8160;BME280;27404;52.398;9.646;2023-04-05T13:01:32;101506.78;;;9.42;42.29
8160;BME280;27404;52.398;9.646;2023-04-05T13:03:59;101504.94;;;9.56;42.52
8160;BME280;27404;52.398;9.646;2023-04-05T13:06:29;101500.22;;;9.29;42.81
8160;BME280;27404;52.398;9.646;2023-04-05T13:08:55;101491.75;;;8.97;41.39
8160;BME280;27404;52.398;9.646;2023-04-05T13:11:21;101496.38;;;9.03;43.46
8160;BME280;27404;52.398;9.646;2023-04-05T13:13:47;101495.63;;;9.23;44.26
8160;BME280;27404;52.398;9.646;2023-04-05T13:16:12;101495.63;;;9.23;43.28
8160;BME280;27404;52.398;9.646;2023-04-05T13:18:38;101487.16;;;9.04;43.70
8160;BME280;27404;52.398;9.646;2023-04-05T13:21:04;101492.63;;;9.04;42.71
8160;BME280;27404;52.398;9.646;2023-04-05T13:23:35;101484.31;;;9.26;43.40
8160;BME280;27404;52.398;9.646;2023-04-05T13:26:01;101482.16;;;9.15;42.53
8160;BME280;27404;52.398;9.646;2023-04-05T13:28:26;101471.25;;;9.15;42.20
8160;BME280;27404;52.398;9.646;2023-04-05T13:30:52;101471.22;;;9.08;41.98
8160;BME280;27404;52.398;9.646;2023-04-05T13:33:18;101474.13;;;8.93;42.04